createdAt,value
2017-08-26T00:02:13.241Z,9.47
2017-08-26T00:04:47.122Z,8.70
2017-08-26T00:07:21.225Z,9.13
2017-08-26T00:09:55.108Z,8.60
2017-08-26T00:12:29.700Z,9.73
2017-08-26T00:15:03.305Z,10.67
2017-08-26T00:17:37.581Z,10.37
2017-08-26T00:20:11.763Z,10.60
2017-08-26T00:22:45.311Z,9.57
2017-08-26T00:25:19.498Z,9.47
2017-08-26T00:27:53.745Z,11.07
2017-08-26T00:30:27.496Z,9.43
2017-08-26T00:33:01.503Z,10.30
2017-08-26T00:35:35.556Z,11.50
2017-08-26T00:38:09.589Z,10.10
2017-08-26T00:40:43.691Z,9.57
2017-08-26T00:43:17.551Z,11.13
2017-08-26T00:45:51.828Z,11.17
2017-08-26T00:48:25.963Z,10.30
2017-08-26T00:50:59.841Z,10.30
2017-08-26T00:53:33.832Z,9.97
2017-08-26T00:56:07.984Z,9.63
2017-08-26T00:58:41.921Z,11.33
2017-08-26T01:01:15.886Z,10.10
2017-08-26T01:03:49.757Z,10.73
2017-08-26T01:06:23.819Z,10.27
2017-08-26T01:08:57.877Z,11.23
2017-08-26T01:11:32.018Z,10.00
2017-08-26T01:14:05.912Z,10.30
2017-08-26T01:16:39.842Z,9.90
2017-08-26T01:19:13.736Z,10.03
2017-08-26T01:21:47.556Z,9.43
2017-08-26T01:24:21.670Z,11.73
2017-08-26T01:26:55.585Z,8.93
2017-08-26T01:29:29.594Z,11.65
2017-08-26T01:32:03.764Z,10.70
2017-08-26T01:34:37.450Z,9.73
2017-08-26T01:37:11.480Z,10.30
2017-08-26T01:39:45.625Z,9.57
2017-08-26T01:42:19.928Z,10.10
2017-08-26T01:44:54.187Z,9.60
2017-08-26T01:47:28.181Z,10.77
2017-08-26T01:50:02.296Z,11.17
2017-08-26T01:52:36.596Z,10.30
2017-08-26T01:55:10.743Z,11.03
2017-08-26T01:57:44.812Z,10.40
2017-08-26T02:00:28.903Z,9.73
2017-08-26T02:03:02.747Z,10.80
2017-08-26T02:05:37.003Z,10.07
2017-08-26T02:08:11.039Z,10.33
2017-08-26T02:10:44.992Z,10.70
2017-08-26T02:13:18.693Z,10.87
2017-08-26T02:15:53.149Z,10.73
2017-08-26T02:18:27.174Z,10.90
2017-08-26T02:21:01.360Z,9.80
2017-08-26T02:23:35.145Z,10.50
2017-08-26T02:26:09.139Z,10.07
2017-08-26T02:28:43.036Z,10.40
2017-08-26T02:31:16.900Z,9.53
2017-08-26T02:33:50.941Z,11.00
2017-08-26T02:36:25.947Z,10.77
2017-08-26T02:39:00.035Z,10.40
2017-08-26T02:41:34.256Z,10.10
2017-08-26T02:44:08.415Z,10.00
2017-08-26T02:46:42.901Z,10.87
2017-08-26T02:49:17.147Z,10.30
2017-08-26T02:51:51.432Z,10.60
2017-08-26T02:54:25.056Z,10.93
2017-08-26T02:56:59.177Z,11.03
2017-08-26T02:59:33.487Z,11.30
2017-08-26T03:02:07.855Z,11.60
2017-08-26T03:04:41.728Z,10.67
2017-08-26T03:07:15.917Z,11.73
2017-08-26T03:09:49.543Z,10.83
2017-08-26T03:12:23.573Z,11.93
2017-08-26T03:14:57.962Z,11.87
2017-08-26T03:17:31.587Z,12.97
2017-08-26T03:20:05.573Z,12.90
2017-08-26T03:22:39.686Z,13.40
2017-08-26T03:25:13.775Z,13.60
2017-08-26T03:27:47.783Z,12.43
2017-08-26T03:30:21.937Z,12.73
2017-08-26T03:32:56.422Z,12.83
2017-08-26T03:35:30.494Z,13.67
2017-08-26T03:38:04.075Z,13.13
2017-08-26T03:40:38.152Z,12.83
2017-08-26T03:43:12.387Z,13.90
2017-08-26T03:45:46.391Z,13.87
2017-08-26T03:48:20.631Z,13.63
2017-08-26T03:50:55.144Z,13.10
2017-08-26T03:53:29.209Z,11.13
2017-08-26T03:56:03.136Z,12.33
2017-08-26T03:58:37.304Z,13.40
2017-08-26T04:01:11.476Z,12.47
2017-08-26T04:03:45.507Z,13.23
2017-08-26T04:06:19.828Z,12.67
2017-08-26T04:08:53.322Z,12.47
2017-08-26T04:11:27.655Z,13.03
2017-08-26T04:14:02.043Z,11.60
2017-08-26T04:16:36.236Z,12.40
2017-08-26T04:19:10.169Z,13.10
2017-08-26T04:21:44.065Z,13.07
2017-08-26T04:24:17.984Z,14.33
2017-08-26T04:26:51.824Z,13.63
2017-08-26T04:29:26.017Z,13.23
2017-08-26T04:32:00.268Z,13.40
2017-08-26T04:34:33.764Z,14.07
2017-08-26T04:37:07.944Z,14.80
2017-08-26T04:39:42.310Z,14.80
2017-08-26T04:42:16.380Z,15.57
2017-08-26T04:44:50.408Z,14.70
2017-08-26T04:47:24.705Z,15.40
2017-08-26T04:49:58.871Z,15.43
2017-08-26T04:52:32.684Z,14.20
2017-08-26T04:55:06.575Z,15.27
2017-08-26T04:57:40.738Z,16.17
2017-08-26T05:00:14.785Z,15.80
2017-08-26T05:02:48.772Z,16.20
2017-08-26T05:05:22.806Z,15.73
2017-08-26T05:07:56.639Z,14.80
2017-08-26T05:10:30.884Z,15.80
2017-08-26T05:13:04.802Z,15.40
2017-08-26T05:15:39.166Z,16.00
2017-08-26T05:18:13.678Z,16.90
2017-08-26T05:20:48.080Z,18.67
2017-08-26T05:23:22.249Z,18.17
2017-08-26T05:25:56.218Z,17.47
2017-08-26T05:28:30.905Z,17.10
2017-08-26T05:31:04.605Z,18.07
2017-08-26T05:33:38.641Z,16.27
2017-08-26T05:36:12.730Z,14.80
2017-08-26T05:38:46.784Z,14.67
2017-08-26T05:41:21.252Z,15.23
2017-08-26T05:43:55.292Z,14.67
2017-08-26T05:46:29.240Z,14.30
2017-08-26T05:49:03.256Z,14.23
2017-08-26T05:51:37.343Z,12.83
2017-08-26T05:54:11.345Z,13.03
2017-08-26T05:56:45.740Z,12.60
2017-08-26T05:59:19.604Z,13.50
2017-08-26T06:01:53.603Z,11.53
2017-08-26T06:04:27.746Z,12.63
2017-08-26T06:07:01.714Z,13.00
2017-08-26T06:09:35.635Z,14.10
2017-08-26T06:12:09.723Z,13.67
2017-08-26T06:14:43.764Z,12.80
2017-08-26T06:17:17.621Z,14.40
2017-08-26T06:19:51.125Z,13.83
2017-08-26T06:22:25.096Z,13.83
2017-08-26T06:24:59.084Z,13.90
2017-08-26T06:27:33.117Z,14.27
2017-08-26T06:30:07.197Z,14.60
2017-08-26T06:32:41.284Z,15.60
2017-08-26T06:35:15.349Z,29.87
2017-08-26T06:37:49.388Z,17.33
2017-08-26T06:40:23.445Z,14.10
2017-08-26T06:42:57.598Z,13.67
2017-08-26T06:45:32.009Z,13.23
2017-08-26T06:48:06.203Z,14.03
2017-08-26T06:50:40.053Z,13.73
2017-08-26T06:53:14.041Z,12.90
2017-08-26T06:55:48.059Z,15.00
2017-08-26T06:58:21.702Z,12.90
2017-08-26T07:00:55.448Z,12.57
2017-08-26T07:03:28.916Z,14.13
2017-08-26T07:06:02.891Z,13.83
2017-08-26T07:08:36.855Z,13.40
2017-08-26T07:11:11.096Z,13.47
2017-08-26T07:13:45.104Z,13.50
2017-08-26T07:16:19.156Z,12.27
2017-08-26T07:18:53.028Z,12.40
2017-08-26T07:21:26.832Z,12.43
2017-08-26T07:24:00.512Z,11.87
2017-08-26T07:26:34.447Z,10.77
2017-08-26T07:29:08.576Z,12.10
2017-08-26T07:31:42.536Z,9.97
2017-08-26T07:34:16.459Z,11.10
2017-08-26T07:36:50.479Z,11.30
2017-08-26T07:39:24.685Z,10.53
2017-08-26T07:41:58.629Z,11.10
2017-08-26T07:44:32.735Z,10.43
2017-08-26T07:47:06.916Z,10.97
2017-08-26T07:49:40.896Z,10.33
2017-08-26T07:52:15.198Z,10.37
2017-08-26T07:54:49.086Z,10.50
2017-08-26T07:57:23.066Z,10.07
2017-08-26T07:59:57.079Z,9.83
2017-08-26T08:02:31.819Z,9.50
2017-08-26T08:05:06.126Z,8.90
2017-08-26T08:07:39.635Z,7.90
2017-08-26T08:10:13.579Z,8.30
2017-08-26T08:12:48.873Z,7.80
2017-08-26T08:15:22.700Z,8.20
2017-08-26T08:17:56.733Z,8.30
2017-08-26T08:20:30.289Z,7.43
2017-08-26T08:23:04.172Z,7.53
2017-08-26T08:25:38.052Z,7.90
2017-08-26T08:28:12.273Z,7.73
2017-08-26T08:30:46.083Z,7.50
2017-08-26T08:33:20.199Z,7.67
2017-08-26T08:35:54.304Z,8.10
2017-08-26T08:38:28.481Z,8.10
2017-08-26T08:41:02.693Z,7.07
2017-08-26T08:43:36.582Z,6.83
2017-08-26T08:46:11.225Z,7.67
2017-08-26T08:48:45.965Z,6.73
2017-08-26T08:51:19.556Z,7.10
2017-08-26T08:53:53.619Z,6.40
2017-08-26T08:56:27.699Z,6.93
2017-08-26T08:59:01.510Z,7.00
2017-08-26T09:01:35.332Z,6.57
2017-08-26T09:04:09.742Z,6.77
2017-08-26T09:06:43.611Z,6.97
2017-08-26T09:09:17.504Z,7.33
2017-08-26T09:11:51.766Z,6.80
2017-08-26T09:14:25.917Z,6.63
2017-08-26T09:17:00.340Z,7.37
2017-08-26T09:19:34.956Z,6.53
2017-08-26T09:22:08.884Z,6.27
2017-08-26T09:24:42.587Z,7.47
2017-08-26T09:27:16.645Z,7.67
2017-08-26T09:29:50.831Z,7.27
2017-08-26T09:32:25.225Z,7.13
2017-08-26T09:34:59.402Z,6.20
2017-08-26T09:37:34.062Z,7.50
2017-08-26T09:40:08.020Z,6.70
2017-08-26T09:42:42.395Z,7.43
2017-08-26T09:45:16.825Z,6.60
2017-08-26T09:47:50.606Z,6.70
2017-08-26T09:50:24.635Z,6.37
2017-08-26T09:52:58.585Z,6.93
2017-08-26T09:55:33.320Z,7.00
2017-08-26T09:58:07.453Z,6.43
2017-08-26T10:00:41.979Z,6.60
2017-08-26T10:03:16.390Z,6.53
2017-08-26T10:05:50.266Z,6.40
2017-08-26T10:08:24.417Z,7.47
2017-08-26T10:10:58.336Z,6.77
2017-08-26T10:13:32.453Z,6.73
2017-08-26T10:16:06.786Z,6.90
2017-08-26T10:18:40.988Z,6.67
2017-08-26T10:21:15.412Z,6.17
2017-08-26T10:23:49.346Z,6.57
2017-08-26T10:26:23.211Z,6.77
2017-08-26T10:28:57.283Z,7.20
2017-08-26T10:31:31.360Z,7.10
2017-08-26T10:34:05.281Z,7.07
2017-08-26T10:36:39.191Z,7.53
2017-08-26T10:39:13.476Z,6.87
2017-08-26T10:41:47.760Z,7.20
2017-08-26T10:44:22.004Z,6.80
2017-08-26T10:46:55.643Z,7.00
2017-08-26T10:49:29.699Z,7.43
2017-08-26T10:52:03.353Z,7.43
2017-08-26T10:54:36.958Z,7.47
2017-08-26T10:57:10.730Z,7.17
2017-08-26T10:59:44.608Z,8.90
2017-08-26T11:02:18.835Z,7.80
2017-08-26T11:04:52.273Z,7.40
2017-08-26T11:07:26.484Z,7.17
2017-08-26T11:10:00.094Z,7.53
2017-08-26T11:12:34.335Z,7.27
2017-08-26T11:15:08.489Z,7.20
2017-08-26T11:17:43.722Z,7.83
2017-08-26T11:20:17.351Z,7.20
2017-08-26T11:22:51.697Z,7.53
2017-08-26T11:25:25.974Z,7.23
2017-08-26T11:27:59.613Z,9.40
2017-08-26T11:30:33.101Z,8.37
2017-08-26T11:33:07.926Z,8.60
2017-08-26T11:35:42.110Z,8.40
2017-08-26T11:38:16.259Z,7.77
2017-08-26T11:40:50.689Z,7.80
2017-08-26T11:43:24.997Z,8.53
2017-08-26T11:45:58.587Z,8.70
2017-08-26T11:48:32.361Z,8.07
2017-08-26T11:51:06.588Z,8.45
2017-08-26T11:53:41.312Z,8.13
2017-08-26T11:56:15.473Z,8.90
2017-08-26T11:58:49.443Z,8.10
2017-08-26T12:01:23.232Z,9.27
2017-08-26T12:03:57.397Z,9.13
2017-08-26T12:06:31.309Z,8.95
2017-08-26T12:09:05.768Z,8.20
2017-08-26T12:11:40.106Z,10.30
2017-08-26T12:14:13.923Z,8.10
2017-08-26T12:16:48.111Z,8.80
2017-08-26T12:19:21.902Z,9.40
2017-08-26T12:21:55.656Z,9.03
2017-08-26T12:24:29.662Z,8.67
2017-08-26T12:27:03.392Z,8.70
2017-08-26T12:29:37.947Z,9.60
2017-08-26T12:32:12.335Z,7.97
2017-08-26T12:34:47.859Z,8.13
2017-08-26T12:37:21.724Z,7.87
2017-08-26T12:39:55.768Z,7.78
2017-08-26T12:42:29.682Z,8.07
2017-08-26T12:45:03.799Z,7.80
2017-08-26T12:47:37.364Z,8.00
2017-08-26T12:50:11.839Z,7.65
2017-08-26T12:52:45.823Z,8.13
2017-08-26T12:55:20.184Z,9.15
2017-08-26T12:57:54.768Z,8.45
2017-08-26T13:00:28.286Z,9.10
2017-08-26T13:03:02.042Z,7.50
2017-08-26T13:05:35.868Z,8.13
2017-08-26T13:08:09.723Z,8.30
2017-08-26T13:10:43.639Z,8.00
2017-08-26T13:13:17.810Z,8.25
2017-08-26T13:15:51.610Z,7.97
2017-08-26T13:18:25.081Z,8.63
2017-08-26T13:20:58.962Z,8.20
2017-08-26T13:23:32.880Z,8.00
2017-08-26T13:26:06.848Z,7.82
2017-08-26T13:28:42.095Z,7.45
2017-08-26T13:31:16.604Z,7.60
2017-08-26T13:33:50.543Z,7.45
2017-08-26T13:36:24.418Z,7.60
2017-08-26T13:38:58.280Z,8.45
2017-08-26T13:41:32.144Z,7.97
2017-08-26T13:44:06.171Z,7.72
2017-08-26T13:46:40.201Z,7.53
2017-08-26T13:49:14.414Z,8.20
2017-08-26T13:51:48.193Z,8.00
2017-08-26T13:54:21.947Z,8.00
2017-08-26T13:56:56.004Z,8.48
2017-08-26T13:59:30.100Z,7.55
2017-08-26T14:02:04.419Z,7.75
2017-08-26T14:04:39.374Z,8.23
2017-08-26T14:07:13.695Z,7.50
2017-08-26T14:09:48.409Z,7.70
2017-08-26T14:12:23.037Z,8.25
2017-08-26T14:14:56.870Z,8.20
2017-08-26T14:17:30.805Z,8.10
2017-08-26T14:20:04.669Z,7.97
2017-08-26T14:22:38.671Z,7.47
2017-08-26T14:25:12.488Z,7.12
2017-08-26T14:27:46.576Z,7.55
2017-08-26T14:30:19.904Z,7.40
2017-08-26T14:32:54.006Z,7.97
2017-08-26T14:35:27.840Z,7.77
2017-08-26T14:38:01.897Z,7.80
2017-08-26T14:40:35.625Z,7.70
2017-08-26T14:43:09.530Z,7.77
2017-08-26T14:45:43.284Z,7.60
2017-08-26T14:48:17.657Z,7.53
2017-08-26T14:50:51.756Z,7.80
2017-08-26T14:53:25.788Z,7.73
2017-08-26T14:56:00.612Z,8.90
2017-08-26T14:58:34.551Z,8.63
2017-08-26T15:01:08.689Z,8.63
2017-08-26T15:03:43.584Z,8.40
2017-08-26T15:06:17.403Z,8.87
2017-08-26T15:08:51.163Z,8.63
2017-08-26T15:11:25.156Z,8.93
2017-08-26T15:13:59.005Z,8.80
2017-08-26T15:16:32.537Z,9.07
2017-08-26T15:19:06.230Z,8.40
2017-08-26T15:21:40.146Z,9.00
2017-08-26T15:24:14.177Z,9.30
2017-08-26T15:26:47.908Z,8.90
2017-08-26T15:29:21.855Z,9.80
2017-08-26T15:31:55.702Z,11.10
2017-08-26T15:34:29.939Z,11.13
2017-08-26T15:37:03.611Z,9.83
2017-08-26T15:39:37.457Z,10.27
2017-08-26T15:42:11.437Z,9.50
2017-08-26T15:44:45.129Z,9.77
2017-08-26T15:47:18.848Z,9.83
2017-08-26T15:49:52.717Z,13.13
2017-08-26T15:52:26.908Z,9.83
2017-08-26T15:55:00.513Z,10.20
2017-08-26T15:57:34.360Z,9.30
2017-08-26T16:00:08.759Z,9.73
2017-08-26T16:02:43.085Z,9.00
2017-08-26T16:05:17.086Z,9.27
2017-08-26T16:07:51.632Z,9.70
2017-08-26T16:10:25.711Z,9.30
2017-08-26T16:12:59.675Z,10.40
2017-08-26T16:15:34.384Z,11.10
2017-08-26T16:18:08.809Z,17.47
2017-08-26T16:20:43.219Z,10.20
2017-08-26T16:23:17.174Z,12.70
2017-08-26T16:25:51.162Z,11.43
2017-08-26T16:28:25.259Z,14.03
2017-08-26T16:30:59.346Z,11.40
2017-08-26T16:33:33.460Z,10.50
2017-08-26T16:36:06.980Z,10.27
2017-08-26T16:38:40.701Z,10.60
2017-08-26T16:41:14.573Z,9.97
2017-08-26T16:43:48.602Z,10.00
2017-08-26T16:46:22.753Z,10.23
2017-08-26T16:48:56.873Z,9.87
2017-08-26T16:51:30.662Z,9.67
2017-08-26T16:54:04.436Z,33.83
2017-08-26T16:56:38.891Z,23.63
2017-08-26T16:59:12.338Z,13.60
2017-08-26T17:01:46.674Z,13.20
2017-08-26T17:04:20.212Z,11.40
2017-08-26T17:06:54.179Z,11.63
2017-08-26T17:09:27.817Z,11.97
2017-08-26T17:12:01.680Z,10.93
2017-08-26T17:14:35.552Z,11.23
2017-08-26T17:17:09.687Z,10.70
2017-08-26T17:19:43.062Z,9.90
2017-08-26T17:22:17.036Z,11.00
2017-08-26T17:24:51.727Z,10.30
2017-08-26T17:27:25.559Z,10.77
2017-08-26T17:29:59.456Z,10.90
2017-08-26T17:32:33.416Z,10.33
2017-08-26T17:35:07.319Z,10.20
2017-08-26T17:37:41.387Z,9.90
2017-08-26T17:40:14.952Z,10.83
2017-08-26T17:42:48.632Z,10.00
2017-08-26T17:45:22.793Z,10.43
2017-08-26T17:47:56.838Z,10.87
2017-08-26T17:50:30.648Z,10.17
2017-08-26T17:53:04.373Z,9.40
2017-08-26T17:55:38.213Z,10.17
2017-08-26T17:58:12.251Z,10.50
2017-08-26T18:00:46.420Z,10.10
2017-08-26T18:03:19.949Z,9.63
2017-08-26T18:05:53.921Z,9.70
2017-08-26T18:08:27.780Z,10.40
2017-08-26T18:11:01.632Z,9.20
2017-08-26T18:13:35.588Z,9.90
2017-08-26T18:16:09.413Z,9.80
2017-08-26T18:18:43.191Z,9.90
2017-08-26T18:21:17.168Z,9.70
2017-08-26T18:23:51.149Z,10.90
2017-08-26T18:26:25.265Z,9.53
2017-08-26T18:28:59.111Z,10.00
2017-08-26T19:33:22.461Z,10.33
2017-08-26T19:35:56.560Z,9.87
2017-08-26T19:38:30.432Z,11.90
2017-08-26T19:41:04.404Z,10.93
2017-08-26T19:43:38.259Z,10.80
2017-08-26T19:46:12.256Z,10.17
2017-08-26T19:48:45.988Z,9.80
2017-08-26T19:51:19.826Z,10.53
2017-08-26T19:53:53.575Z,9.73
2017-08-26T19:56:27.558Z,9.83
2017-08-26T19:59:01.302Z,10.20
2017-08-26T20:01:35.099Z,10.80
2017-08-26T20:04:08.660Z,9.97
2017-08-26T20:06:42.600Z,11.07
2017-08-26T20:09:16.961Z,14.40
2017-08-26T20:11:51.055Z,14.07
2017-08-26T20:14:24.984Z,13.47
2017-08-26T20:16:58.908Z,11.00
2017-08-26T20:19:32.679Z,10.57
2017-08-26T20:22:06.598Z,9.50
2017-08-26T20:24:40.373Z,10.67
2017-08-26T20:27:14.421Z,10.07
2017-08-26T20:29:48.618Z,10.20
2017-08-26T20:32:22.387Z,10.33
2017-08-26T20:34:55.960Z,9.47
2017-08-26T20:37:30.167Z,9.90
2017-08-26T20:40:04.128Z,9.90
2017-08-26T20:42:38.008Z,9.40
2017-08-26T20:45:11.993Z,11.00
2017-08-26T20:47:45.775Z,11.03
2017-08-26T21:31:41.879Z,11.60
2017-08-26T21:34:15.224Z,10.80
2017-08-26T21:36:48.995Z,10.88
2017-08-26T21:39:22.634Z,11.07
2017-08-26T21:41:57.384Z,10.80
2017-08-26T21:44:31.352Z,10.70
2017-08-26T21:47:04.992Z,11.00
2017-08-26T21:49:39.143Z,9.87
2017-08-26T21:52:13.124Z,10.70
2017-08-26T21:54:46.964Z,10.07
2017-08-26T21:57:20.777Z,9.80
2017-08-26T21:59:54.727Z,10.10
2017-08-26T22:02:28.608Z,9.67
2017-08-26T22:05:02.461Z,10.20
2017-08-26T22:07:36.343Z,9.40
2017-08-26T22:10:10.180Z,10.33
2017-08-26T22:12:44.141Z,10.43
2017-08-26T22:15:18.055Z,9.90
2017-08-26T22:17:52.118Z,10.40
2017-08-26T22:20:26.152Z,9.27
2017-08-26T22:23:00.098Z,9.77
2017-08-26T22:25:34.274Z,9.80
2017-08-26T22:28:08.135Z,9.20
2017-08-26T22:30:42.076Z,9.30
2017-08-26T22:33:15.564Z,9.23
2017-08-26T22:35:49.208Z,9.83
2017-08-26T22:38:23.251Z,8.70
2017-08-26T22:40:57.096Z,8.50
2017-08-26T22:43:30.955Z,8.10
2017-08-26T22:46:05.095Z,8.10
2017-08-26T22:48:39.254Z,8.47
2017-08-26T22:51:12.915Z,7.97
2017-08-26T22:53:46.869Z,7.87
2017-08-26T22:56:20.822Z,7.90
2017-08-26T22:58:54.575Z,7.70
2017-08-26T23:01:28.330Z,7.77
2017-08-26T23:04:02.117Z,8.60
2017-08-26T23:06:35.973Z,8.30
2017-08-26T23:09:10.014Z,8.57
2017-08-26T23:11:43.977Z,8.83
2017-08-26T23:14:18.045Z,8.40
2017-08-26T23:16:51.943Z,9.07
2017-08-26T23:31:12.470Z,11.70
2017-08-26T23:33:46.296Z,9.40
2017-08-26T23:36:20.253Z,11.50
2017-08-26T23:38:54.671Z,14.50
2017-08-26T23:41:28.564Z,12.97
2017-08-26T23:44:02.533Z,12.47
2017-08-26T23:46:36.923Z,13.57
2017-08-26T23:49:10.671Z,12.27
2017-08-26T23:51:44.444Z,13.43
2017-08-26T23:54:18.180Z,13.03
2017-08-26T23:56:52.157Z,12.13
2017-08-26T23:59:26.012Z,12.30
